sensor_id;sensor_type;location;lat;lon;timestamp;pressure;altitude;pressure_sealevel;temperature;humidity
47054;BME280;32811;52.382;5.270;2023-04-04T00:01:44;103175.94;;;1.16;100.00
47054;BME280;32811;52.382;5.270;2023-04-04T00:04:10;103157.41;;;1.07;100.00
47054;BME280;32811;52.382;5.270;2023-04-04T00:06:38;103158.06;;;1.04;100.00
47054;BME280;32811;52.382;5.270;2023-04-04T00:09:09;103167.56;;;1.07;100.00
47054;BME280;32811;52.382;5.270;2023-04-04T00:11:36;103175.09;;;1.05;100.00
47054;BME280;32811;52.382;5.270;2023-04-04T00:14:02;103166.69;;;1.06;100.00
47054;BME280;32811;52.382;5.270;2023-04-04T00:16:30;103152.72;;;1.01;100.00
47054;BME280;32811;52.382;5.270;2023-04-04T00:18:58;103159.44;;;1.00;100.00
47054;BME280;32811;52.382;5.270;2023-04-04T00:21:24;103153.88;;;0.94;100.00
47054;BME280;32811;52.382;5.270;2023-04-04T00:23:53;103154.91;;;0.96;100.00
47054;BME280;32811;52.382;5.270;2023-04-04T00:26:19;103154.41;;;0.90;100.00
47054;BME280;32811;52.382;5.270;2023-04-04T00:28:47;103152.88;;;0.92;100.00
47054;BME280;32811;52.382;5.270;2023-04-04T00:31:14;103152.59;;;0.89;100.00
47054;BME280;32811;52.382;5.270;2023-04-04T00:33:41;103147.03;;;0.83;100.00
47054;BME280;32811;52.382;5.270;2023-04-04T00:36:08;103158.75;;;0.81;100.00
47054;BME280;32811;52.382;5.270;2023-04-04T00:38:34;103155.94;;;0.78;100.00
47054;BME280;32811;52.382;5.270;2023-04-04T00:41:01;103150.38;;;0.72;100.00
47054;BME280;32811;52.382;5.270;2023-04-04T00:43:28;103143.13;;;0.66;100.00
47054;BME280;32811;52.382;5.270;2023-04-04T00:45:55;103152.28;;;0.64;100.00
47054;BME280;32811;52.382;5.270;2023-04-04T00:48:22;103147.03;;;0.62;100.00
47054;BME280;32811;52.382;5.270;2023-04-04T00:50:50;103154.28;;;0.58;100.00
47054;BME280;32811;52.382;5.270;2023-04-04T00:53:16;103145.41;;;0.53;100.00
47054;BME280;32811;52.382;5.270;2023-04-04T00:55:43;103141.09;;;0.41;100.00
47054;BME280;32811;52.382;5.270;2023-04-04T00:58:10;103143.50;;;0.40;100.00
47054;BME280;32811;52.382;5.270;2023-04-04T01:04:23;103141.59;;;0.37;100.00
47054;BME280;32811;52.382;5.270;2023-04-04T01:06:50;103132.72;;;0.32;100.00
47054;BME280;32811;52.382;5.270;2023-04-04T01:09:17;103122.31;;;0.19;100.00
47054;BME280;32811;52.382;5.270;2023-04-04T01:11:44;103134.22;;;0.20;100.00
47054;BME280;32811;52.382;5.270;2023-04-04T01:14:11;103134.38;;;0.22;100.00
47054;BME280;32811;52.382;5.270;2023-04-04T01:16:37;103133.75;;;0.14;100.00
47054;BME280;32811;52.382;5.270;2023-04-04T01:19:08;103127.38;;;0.09;100.00
47054;BME280;32811;52.382;5.270;2023-04-04T01:21:38;103128.88;;;0.07;100.00
47054;BME280;32811;52.382;5.270;2023-04-04T01:24:06;103136.50;;;0.07;100.00
47054;BME280;32811;52.382;5.270;2023-04-04T01:26:34;103135.00;;;-0.02;100.00
47054;BME280;32811;52.382;5.270;2023-04-04T01:29:00;103146.41;;;0.04;100.00
47054;BME280;32811;52.382;5.270;2023-04-04T01:31:32;103142.22;;;0.04;100.00
47054;BME280;32811;52.382;5.270;2023-04-04T01:34:17;103128.38;;;-0.10;100.00
47054;BME280;32811;52.382;5.270;2023-04-04T01:39:27;103123.91;;;-0.12;100.00
47054;BME280;32811;52.382;5.270;2023-04-04T01:41:57;103142.47;;;-0.03;100.00
47054;BME280;32811;52.382;5.270;2023-04-04T01:44:24;103150.09;;;-0.03;100.00
47054;BME280;32811;52.382;5.270;2023-04-04T01:46:54;103133.69;;;-0.17;100.00
47054;BME280;32811;52.382;5.270;2023-04-04T01:49:22;103126.72;;;-0.19;100.00
47054;BME280;32811;52.382;5.270;2023-04-04T01:51:50;103146.00;;;-0.11;100.00
47054;BME280;32811;52.382;5.270;2023-04-04T01:54:17;103144.88;;;-0.15;100.00
47054;BME280;32811;52.382;5.270;2023-04-04T01:56:44;103155.75;;;-0.16;100.00
47054;BME280;32811;52.382;5.270;2023-04-04T01:59:11;103138.88;;;-0.26;100.00
47054;BME280;32811;52.382;5.270;2023-04-04T02:01:38;103138.72;;;-0.27;100.00
47054;BME280;32811;52.382;5.270;2023-04-04T02:04:05;103123.09;;;-0.42;100.00
47054;BME280;32811;52.382;5.270;2023-04-04T02:06:32;103151.16;;;-0.30;100.00
47054;BME280;32811;52.382;5.270;2023-04-04T02:08:59;103132.97;;;-0.45;100.00
47054;BME280;32811;52.382;5.270;2023-04-04T02:11:26;103153.44;;;-0.33;100.00
47054;BME280;32811;52.382;5.270;2023-04-04T02:13:52;103138.56;;;-0.39;100.00
47054;BME280;32811;52.382;5.270;2023-04-04T02:16:19;103129.78;;;-0.43;100.00
47054;BME280;32811;52.382;5.270;2023-04-04T02:18:46;103144.72;;;-0.27;100.00
47054;BME280;32811;52.382;5.270;2023-04-04T02:21:13;103135.31;;;-0.28;100.00
47054;BME280;32811;52.382;5.270;2023-04-04T02:23:40;103134.56;;;-0.27;100.00
47054;BME280;32811;52.382;5.270;2023-04-04T02:26:06;103123.59;;;-0.36;100.00
47054;BME280;32811;52.382;5.270;2023-04-04T02:28:33;103134.78;;;-0.34;100.00
47054;BME280;32811;52.382;5.270;2023-04-04T02:31:03;103122.19;;;-0.43;100.00
47054;BME280;32811;52.382;5.270;2023-04-04T02:33:29;103129.94;;;-0.41;100.00
47054;BME280;32811;52.382;5.270;2023-04-04T02:36:00;103127.88;;;-0.45;100.00
47054;BME280;32811;52.382;5.270;2023-04-04T02:38:27;103116.97;;;-0.54;100.00
47054;BME280;32811;52.382;5.270;2023-04-04T02:40:54;103090.28;;;-0.70;100.00
47054;BME280;32811;52.382;5.270;2023-04-04T02:43:20;103126.22;;;-0.55;100.00
47054;BME280;32811;52.382;5.270;2023-04-04T02:45:47;103126.84;;;-0.57;100.00
47054;BME280;32811;52.382;5.270;2023-04-04T02:48:14;103124.94;;;-0.60;100.00
47054;BME280;32811;52.382;5.270;2023-04-04T02:50:41;103137.00;;;-0.57;100.00
47054;BME280;32811;52.382;5.270;2023-04-04T02:53:08;103137.00;;;-0.57;100.00
47054;BME280;32811;52.382;5.270;2023-04-04T02:55:34;103120.06;;;-0.67;100.00
47054;BME280;32811;52.382;5.270;2023-04-04T02:58:01;103130.75;;;-0.61;100.00
47054;BME280;32811;52.382;5.270;2023-04-04T03:00:28;103107.50;;;-0.76;100.00
47054;BME280;32811;52.382;5.270;2023-04-04T03:02:55;103125.03;;;-0.69;100.00
47054;BME280;32811;52.382;5.270;2023-04-04T03:05:23;103115.13;;;-0.76;100.00
47054;BME280;32811;52.382;5.270;2023-04-04T03:07:54;103105.81;;;-0.86;100.00
47054;BME280;32811;52.382;5.270;2023-04-04T03:10:22;103127.91;;;-0.74;100.00
47054;BME280;32811;52.382;5.270;2023-04-04T03:12:49;103104.91;;;-0.86;100.00
47054;BME280;32811;52.382;5.270;2023-04-04T03:15:16;103099.19;;;-0.94;100.00
47054;BME280;32811;52.382;5.270;2023-04-04T03:17:43;103103.50;;;-0.93;100.00
47054;BME280;32811;52.382;5.270;2023-04-04T03:20:11;103099.78;;;-0.96;100.00
47054;BME280;32811;52.382;5.270;2023-04-04T03:22:38;103116.72;;;-0.87;100.00
47054;BME280;32811;52.382;5.270;2023-04-04T03:25:05;103106.66;;;-0.95;100.00
47054;BME280;32811;52.382;5.270;2023-04-04T03:27:32;103117.34;;;-0.89;100.00
47054;BME280;32811;52.382;5.270;2023-04-04T03:29:59;103119.34;;;-0.95;100.00
47054;BME280;32811;52.382;5.270;2023-04-04T03:32:25;103115.16;;;-0.95;100.00
47054;BME280;32811;52.382;5.270;2023-04-04T03:34:52;103110.31;;;-1.02;100.00
47054;BME280;32811;52.382;5.270;2023-04-04T03:37:19;103094.00;;;-1.14;100.00
47054;BME280;32811;52.382;5.270;2023-04-04T03:39:46;103102.16;;;-1.08;100.00
47054;BME280;32811;52.382;5.270;2023-04-04T03:42:13;103104.81;;;-1.07;100.00
47054;BME280;32811;52.382;5.270;2023-04-04T03:44:40;103113.31;;;-1.06;100.00
47054;BME280;32811;52.382;5.270;2023-04-04T03:47:07;103122.56;;;-1.07;100.00
47054;BME280;32811;52.382;5.270;2023-04-04T03:49:33;103117.22;;;-1.10;100.00
47054;BME280;32811;52.382;5.270;2023-04-04T03:52:00;103105.63;;;-1.16;100.00
47054;BME280;32811;52.382;5.270;2023-04-04T03:54:30;103087.09;;;-1.26;100.00
47054;BME280;32811;52.382;5.270;2023-04-04T03:56:56;103119.47;;;-1.13;100.00
47054;BME280;32811;52.382;5.270;2023-04-04T03:59:23;103124.28;;;-1.16;100.00
47054;BME280;32811;52.382;5.270;2023-04-04T04:01:50;103102.03;;;-1.29;100.00
47054;BME280;32811;52.382;5.270;2023-04-04T04:04:17;103111.81;;;-1.23;100.00
47054;BME280;32811;52.382;5.270;2023-04-04T04:06:44;103121.22;;;-1.22;100.00
47054;BME280;32811;52.382;5.270;2023-04-04T04:09:10;103072.66;;;-1.46;100.00
47054;BME280;32811;52.382;5.270;2023-04-04T04:11:40;103116.75;;;-1.24;100.00
47054;BME280;32811;52.382;5.270;2023-04-04T04:14:07;103124.47;;;-1.23;100.00
47054;BME280;32811;52.382;5.270;2023-04-04T04:16:33;103095.44;;;-1.46;100.00
47054;BME280;32811;52.382;5.270;2023-04-04T04:19:00;103103.59;;;-1.39;100.00
47054;BME280;32811;52.382;5.270;2023-04-04T04:21:27;103106.41;;;-1.36;100.00
47054;BME280;32811;52.382;5.270;2023-04-04T04:23:54;103115.94;;;-1.34;100.00
47054;BME280;32811;52.382;5.270;2023-04-04T04:26:20;103123.94;;;-1.29;100.00
47054;BME280;32811;52.382;5.270;2023-04-04T04:28:47;103120.25;;;-1.33;100.00
47054;BME280;32811;52.382;5.270;2023-04-04T04:31:14;103097.25;;;-1.44;100.00
47054;BME280;32811;52.382;5.270;2023-04-04T04:33:41;103100.53;;;-1.46;100.00
47054;BME280;32811;52.382;5.270;2023-04-04T04:36:07;103120.72;;;-1.37;100.00
47054;BME280;32811;52.382;5.270;2023-04-04T04:38:34;103126.19;;;-1.32;100.00
47054;BME280;32811;52.382;5.270;2023-04-04T04:41:01;103113.47;;;-1.42;100.00
47054;BME280;32811;52.382;5.270;2023-04-04T04:43:27;103110.94;;;-1.42;100.00
47054;BME280;32811;52.382;5.270;2023-04-04T04:45:54;103123.88;;;-1.39;100.00
47054;BME280;32811;52.382;5.270;2023-04-04T04:48:21;103122.38;;;-1.37;100.00
47054;BME280;32811;52.382;5.270;2023-04-04T04:50:48;103129.34;;;-1.35;100.00
47054;BME280;32811;52.382;5.270;2023-04-04T04:53:15;103113.59;;;-1.41;100.00
47054;BME280;32811;52.382;5.270;2023-04-04T04:55:41;103115.59;;;-1.47;100.00
47054;BME280;32811;52.382;5.270;2023-04-04T04:58:09;103095.41;;;-1.56;100.00
47054;BME280;32811;52.382;5.270;2023-04-04T05:00:37;103115.44;;;-1.49;100.00
47054;BME280;32811;52.382;5.270;2023-04-04T05:03:04;103105.19;;;-1.50;100.00
47054;BME280;32811;52.382;5.270;2023-04-04T05:05:33;103116.75;;;-1.43;100.00
47054;BME280;32811;52.382;5.270;2023-04-04T05:08:01;103123.88;;;-1.39;100.00
47054;BME280;32811;52.382;5.270;2023-04-04T05:10:28;103123.19;;;-1.47;100.00
47054;BME280;32811;52.382;5.270;2023-04-04T05:12:56;103127.91;;;-1.41;100.00
47054;BME280;32811;52.382;5.270;2023-04-04T05:15:23;103125.59;;;-1.49;100.00
47054;BME280;32811;52.382;5.270;2023-04-04T05:17:51;103131.06;;;-1.44;100.00
47054;BME280;32811;52.382;5.270;2023-04-04T05:20:18;103101.09;;;-1.58;100.00
47054;BME280;32811;52.382;5.270;2023-04-04T05:22:45;103134.16;;;-1.38;100.00
47054;BME280;32811;52.382;5.270;2023-04-04T05:25:12;103142.78;;;-1.36;100.00
47054;BME280;32811;52.382;5.270;2023-04-04T05:27:39;103127.75;;;-1.43;100.00
47054;BME280;32811;52.382;5.270;2023-04-04T05:30:07;103117.50;;;-1.44;100.00
47054;BME280;32811;52.382;5.270;2023-04-04T05:32:34;103137.09;;;-1.33;100.00
47054;BME280;32811;52.382;5.270;2023-04-04T05:35:00;103126.66;;;-1.36;100.00
47054;BME280;32811;52.382;5.270;2023-04-04T05:37:27;103127.44;;;-1.37;100.00
47054;BME280;32811;52.382;5.270;2023-04-04T05:39:54;103137.66;;;-1.27;100.00
47054;BME280;32811;52.382;5.270;2023-04-04T05:42:20;103120.09;;;-1.34;100.00
47054;BME280;32811;52.382;5.270;2023-04-04T05:44:47;103130.16;;;-1.26;100.00
47054;BME280;32811;52.382;5.270;2023-04-04T05:47:14;103123.25;;;-1.18;100.00
47054;BME280;32811;52.382;5.270;2023-04-04T05:49:41;103123.84;;;-1.01;100.00
47054;BME280;32811;52.382;5.270;2023-04-04T05:52:07;103119.09;;;-0.59;100.00
47054;BME280;32811;52.382;5.270;2023-04-04T05:54:35;103128.88;;;0.07;100.00
47054;BME280;32811;52.382;5.270;2023-04-04T05:57:02;103117.59;;;0.24;100.00
47054;BME280;32811;52.382;5.270;2023-04-04T05:59:28;103119.22;;;0.64;100.00
47054;BME280;32811;52.382;5.270;2023-04-04T06:01:55;103076.31;;;0.47;100.00
47054;BME280;32811;52.382;5.270;2023-04-04T06:04:22;103113.63;;;0.58;100.00
47054;BME280;32811;52.382;5.270;2023-04-04T06:06:49;103116.06;;;0.56;100.00
47054;BME280;32811;52.382;5.270;2023-04-04T06:09:17;103113.13;;;0.72;100.00
47054;BME280;32811;52.382;5.270;2023-04-04T06:11:43;103110.31;;;1.22;100.00
47054;BME280;32811;52.382;5.270;2023-04-04T06:14:10;103129.53;;;1.73;100.00
47054;BME280;32811;52.382;5.270;2023-04-04T06:16:40;103119.91;;;2.02;100.00
47054;BME280;32811;52.382;5.270;2023-04-04T06:19:06;103122.41;;;2.24;100.00
47054;BME280;32811;52.382;5.270;2023-04-04T06:21:33;103125.44;;;2.42;100.00
47054;BME280;32811;52.382;5.270;2023-04-04T06:24:00;103111.63;;;2.62;100.00
47054;BME280;32811;52.382;5.270;2023-04-04T06:26:27;103133.50;;;2.82;100.00
47054;BME280;32811;52.382;5.270;2023-04-04T06:28:54;103126.28;;;3.00;100.00
47054;BME280;32811;52.382;5.270;2023-04-04T06:31:21;103130.94;;;2.94;100.00
47054;BME280;32811;52.382;5.270;2023-04-04T06:33:47;103137.16;;;2.98;100.00
47054;BME280;32811;52.382;5.270;2023-04-04T06:36:14;103135.59;;;3.11;100.00
47054;BME280;32811;52.382;5.270;2023-04-04T06:38:41;103123.25;;;3.29;100.00
47054;BME280;32811;52.382;5.270;2023-04-04T06:41:07;103129.47;;;3.33;100.00
47054;BME280;32811;52.382;5.270;2023-04-04T06:43:34;103123.53;;;3.58;100.00
47054;BME280;32811;52.382;5.270;2023-04-04T06:46:00;103103.44;;;3.50;100.00
47054;BME280;32811;52.382;5.270;2023-04-04T06:48:27;103132.91;;;3.82;100.00
47054;BME280;32811;52.382;5.270;2023-04-04T06:50:54;103122.88;;;3.85;100.00
47054;BME280;32811;52.382;5.270;2023-04-04T06:53:20;103127.09;;;4.10;100.00
47054;BME280;32811;52.382;5.270;2023-04-04T06:55:49;103110.78;;;4.08;100.00
47054;BME280;32811;52.382;5.270;2023-04-04T06:58:15;103130.22;;;4.31;100.00
47054;BME280;32811;52.382;5.270;2023-04-04T07:00:42;103128.38;;;4.42;100.00
47054;BME280;32811;52.382;5.270;2023-04-04T07:03:09;103145.00;;;4.48;100.00
47054;BME280;32811;52.382;5.270;2023-04-04T07:05:36;103143.56;;;4.65;100.00
47054;BME280;32811;52.382;5.270;2023-04-04T07:08:05;103122.59;;;4.57;100.00
47054;BME280;32811;52.382;5.270;2023-04-04T07:10:33;103130.38;;;4.59;100.00
47054;BME280;32811;52.382;5.270;2023-04-04T07:13:00;103127.16;;;4.75;100.00
47054;BME280;32811;52.382;5.270;2023-04-04T07:15:27;103117.41;;;4.69;100.00
47054;BME280;32811;52.382;5.270;2023-04-04T07:17:54;103140.91;;;4.77;100.00
47054;BME280;32811;52.382;5.270;2023-04-04T07:20:21;103139.16;;;4.63;100.00
47054;BME280;32811;52.382;5.270;2023-04-04T07:22:47;103121.03;;;4.86;100.00
47054;BME280;32811;52.382;5.270;2023-04-04T07:25:14;103125.00;;;4.94;100.00
47054;BME280;32811;52.382;5.270;2023-04-04T07:27:41;103132.84;;;5.24;100.00
47054;BME280;32811;52.382;5.270;2023-04-04T07:30:08;103139.53;;;5.35;100.00
47054;BME280;32811;52.382;5.270;2023-04-04T07:32:35;103129.81;;;5.58;100.00
47054;BME280;32811;52.382;5.270;2023-04-04T07:35:04;103133.03;;;5.69;100.00
47054;BME280;32811;52.382;5.270;2023-04-04T07:37:32;103116.78;;;5.68;100.00
47054;BME280;32811;52.382;5.270;2023-04-04T07:39:59;103107.03;;;5.62;100.00
47054;BME280;32811;52.382;5.270;2023-04-04T07:42:26;103111.53;;;5.80;100.00
47054;BME280;32811;52.382;5.270;2023-04-04T07:44:53;103122.31;;;5.74;100.00
47054;BME280;32811;52.382;5.270;2023-04-04T07:47:19;103136.44;;;5.96;100.00
47054;BME280;32811;52.382;5.270;2023-04-04T07:49:46;103125.03;;;5.77;100.00
47054;BME280;32811;52.382;5.270;2023-04-04T07:52:13;103120.91;;;5.79;100.00
47054;BME280;32811;52.382;5.270;2023-04-04T07:54:39;103123.78;;;5.71;100.00
47054;BME280;32811;52.382;5.270;2023-04-04T07:57:06;103132.06;;;5.38;100.00
47054;BME280;32811;52.382;5.270;2023-04-04T07:59:35;103121.31;;;5.31;100.00
47054;BME280;32811;52.382;5.270;2023-04-04T08:02:02;103119.31;;;5.40;100.00
47054;BME280;32811;52.382;5.270;2023-04-04T08:04:29;103124.13;;;5.90;100.00
47054;BME280;32811;52.382;5.270;2023-04-04T08:06:56;103119.66;;;6.16;100.00
47054;BME280;32811;52.382;5.270;2023-04-04T08:09:23;103112.78;;;6.15;100.00
47054;BME280;32811;52.382;5.270;2023-04-04T08:11:50;103101.84;;;6.32;97.33
47054;BME280;32811;52.382;5.270;2023-04-04T08:14:17;103104.81;;;6.70;89.73
47054;BME280;32811;52.382;5.270;2023-04-04T08:16:43;103105.78;;;6.86;86.42
47054;BME280;32811;52.382;5.270;2023-04-04T08:19:10;103115.59;;;6.94;86.39
47054;BME280;32811;52.382;5.270;2023-04-04T08:21:36;103108.41;;;7.03;88.43
47054;BME280;32811;52.382;5.270;2023-04-04T08:24:03;103117.75;;;7.17;82.56
47054;BME280;32811;52.382;5.270;2023-04-04T08:26:30;103101.53;;;7.18;74.92
47054;BME280;32811;52.382;5.270;2023-04-04T08:28:57;103109.69;;;7.26;74.70
47054;BME280;32811;52.382;5.270;2023-04-04T08:31:23;103111.69;;;7.32;77.54
47054;BME280;32811;52.382;5.270;2023-04-04T08:33:50;103094.19;;;7.24;73.75
47054;BME280;32811;52.382;5.270;2023-04-04T08:36:17;103102.00;;;7.11;75.08
47054;BME280;32811;52.382;5.270;2023-04-04T08:38:45;103106.69;;;7.18;74.73
47054;BME280;32811;52.382;5.270;2023-04-04T08:41:11;103084.50;;;7.35;74.34
47054;BME280;32811;52.382;5.270;2023-04-04T08:43:39;103100.53;;;7.31;68.94
47054;BME280;32811;52.382;5.270;2023-04-04T08:46:10;103093.25;;;7.55;70.39
47054;BME280;32811;52.382;5.270;2023-04-04T08:48:40;103077.41;;;7.47;65.93
47054;BME280;32811;52.382;5.270;2023-04-04T08:51:09;103084.59;;;7.53;61.96
47054;BME280;32811;52.382;5.270;2023-04-04T08:53:37;103088.03;;;7.70;63.14
47054;BME280;32811;52.382;5.270;2023-04-04T08:56:04;103027.88;;;7.34;64.55
47054;BME280;32811;52.382;5.270;2023-04-04T08:58:31;103089.78;;;7.87;66.46
47054;BME280;32811;52.382;5.270;2023-04-04T09:00:58;103102.41;;;7.99;62.34
47054;BME280;32811;52.382;5.270;2023-04-04T09:03:26;103087.16;;;7.86;61.46
47054;BME280;32811;52.382;5.270;2023-04-04T09:05:56;103100.50;;;7.62;62.87
47054;BME280;32811;52.382;5.270;2023-04-04T09:08:23;103108.13;;;7.94;58.14
47054;BME280;32811;52.382;5.270;2023-04-04T09:10:50;103096.06;;;7.93;56.28
47054;BME280;32811;52.382;5.270;2023-04-04T09:13:18;103099.25;;;8.05;59.83
47054;BME280;32811;52.382;5.270;2023-04-04T09:15:50;103087.59;;;8.11;59.92
47054;BME280;32811;52.382;5.270;2023-04-04T09:18:17;103081.31;;;8.23;61.24
47054;BME280;32811;52.382;5.270;2023-04-04T09:20:45;103082.03;;;8.20;59.37
47054;BME280;32811;52.382;5.270;2023-04-04T09:23:16;103103.44;;;8.37;57.71
47054;BME280;32811;52.382;5.270;2023-04-04T09:25:50;103084.75;;;7.89;63.57
47054;BME280;32811;52.382;5.270;2023-04-04T09:28:30;103086.63;;;8.09;61.45
47054;BME280;32811;52.382;5.270;2023-04-04T09:31:01;103095.88;;;8.22;60.56
47054;BME280;32811;52.382;5.270;2023-04-04T09:33:30;103085.56;;;8.22;59.61
47054;BME280;32811;52.382;5.270;2023-04-04T09:36:01;103085.13;;;8.13;56.13
47054;BME280;32811;52.382;5.270;2023-04-04T09:38:29;103102.03;;;8.26;57.95
47054;BME280;32811;52.382;5.270;2023-04-04T09:40:56;103075.69;;;8.14;58.56
47054;BME280;32811;52.382;5.270;2023-04-04T09:43:24;103081.84;;;7.99;57.06
47054;BME280;32811;52.382;5.270;2023-04-04T09:45:52;103091.63;;;7.90;59.07
47054;BME280;32811;52.382;5.270;2023-04-04T09:48:29;103078.13;;;8.10;59.06
47054;BME280;32811;52.382;5.270;2023-04-04T09:50:58;103079.56;;;8.22;60.30
47054;BME280;32811;52.382;5.270;2023-04-04T09:53:25;103072.06;;;8.26;58.25
47054;BME280;32811;52.382;5.270;2023-04-04T09:55:53;103074.31;;;8.55;58.25
47054;BME280;32811;52.382;5.270;2023-04-04T09:58:24;103072.50;;;8.36;56.89
47054;BME280;32811;52.382;5.270;2023-04-04T10:00:54;103060.34;;;8.15;56.30
47054;BME280;32811;52.382;5.270;2023-04-04T10:03:22;103072.44;;;8.34;55.69
47054;BME280;32811;52.382;5.270;2023-04-04T10:08:26;103075.81;;;8.67;57.54
47054;BME280;32811;52.382;5.270;2023-04-04T10:10:58;103074.25;;;8.53;56.54
47054;BME280;32811;52.382;5.270;2023-04-04T10:13:37;103071.75;;;8.55;56.26
47054;BME280;32811;52.382;5.270;2023-04-04T10:16:08;103080.94;;;8.67;54.26
47054;BME280;32811;52.382;5.270;2023-04-04T10:18:35;103062.03;;;8.85;55.13
47054;BME280;32811;52.382;5.270;2023-04-04T10:21:04;103065.59;;;9.06;57.19
47054;BME280;32811;52.382;5.270;2023-04-04T10:23:35;103062.94;;;9.23;57.09
47054;BME280;32811;52.382;5.270;2023-04-04T10:26:02;103061.56;;;9.11;56.09
47054;BME280;32811;52.382;5.270;2023-04-04T10:28:28;103059.44;;;9.03;53.43
47054;BME280;32811;52.382;5.270;2023-04-04T10:33:55;103056.38;;;8.74;53.18
47054;BME280;32811;52.382;5.270;2023-04-04T10:36:29;103046.38;;;8.62;53.91
47054;BME280;32811;52.382;5.270;2023-04-04T10:39:05;103056.38;;;8.74;54.77
47054;BME280;32811;52.382;5.270;2023-04-04T10:41:34;103057.53;;;8.99;55.34
47054;BME280;32811;52.382;5.270;2023-04-04T10:44:11;103045.31;;;8.94;56.99
47054;BME280;32811;52.382;5.270;2023-04-04T10:46:41;103038.22;;;9.08;55.61
47054;BME280;32811;52.382;5.270;2023-04-04T10:49:09;103035.97;;;8.97;54.42
47054;BME280;32811;52.382;5.270;2023-04-04T10:51:37;103041.41;;;9.03;53.24
47054;BME280;32811;52.382;5.270;2023-04-04T10:54:18;103037.53;;;8.93;56.80
47054;BME280;32811;52.382;5.270;2023-04-04T10:56:45;103038.34;;;8.92;56.96
47054;BME280;32811;52.382;5.270;2023-04-04T10:59:14;103022.00;;;8.91;55.23
47054;BME280;32811;52.382;5.270;2023-04-04T11:01:46;103042.69;;;8.93;54.84
47054;BME280;32811;52.382;5.270;2023-04-04T11:04:18;103023.63;;;8.89;55.83
47054;BME280;32811;52.382;5.270;2023-04-04T11:10:01;103027.53;;;8.81;54.92
47054;BME280;32811;52.382;5.270;2023-04-04T11:12:41;103026.09;;;9.06;55.55
47054;BME280;32811;52.382;5.270;2023-04-04T11:15:11;103019.22;;;9.24;56.58
47054;BME280;32811;52.382;5.270;2023-04-04T11:20:16;103013.50;;;9.12;55.21
47054;BME280;32811;52.382;5.270;2023-04-04T11:22:43;103006.72;;;9.14;52.26
47054;BME280;32811;52.382;5.270;2023-04-04T11:27:53;103005.56;;;9.07;54.98
47054;BME280;32811;52.382;5.270;2023-04-04T11:30:20;103012.41;;;9.26;55.33
47054;BME280;32811;52.382;5.270;2023-04-04T11:32:48;102981.06;;;9.17;54.19
47054;BME280;32811;52.382;5.270;2023-04-04T11:35:31;103000.63;;;9.12;55.88
47054;BME280;32811;52.382;5.270;2023-04-04T11:37:59;102993.84;;;9.14;54.66
47054;BME280;32811;52.382;5.270;2023-04-04T11:40:40;102998.56;;;9.05;53.98
47054;BME280;32811;52.382;5.270;2023-04-04T11:43:10;102999.25;;;9.01;55.24
47054;BME280;32811;52.382;5.270;2023-04-04T11:45:44;102998.75;;;8.90;56.44
47054;BME280;32811;52.382;5.270;2023-04-04T11:48:14;102975.28;;;8.84;57.35
47054;BME280;32811;52.382;5.270;2023-04-04T11:50:41;103000.00;;;8.98;55.59
47054;BME280;32811;52.382;5.270;2023-04-04T11:53:09;102990.03;;;9.25;55.02
47054;BME280;32811;52.382;5.270;2023-04-04T11:55:42;103000.53;;;9.10;54.49
47054;BME280;32811;52.382;5.270;2023-04-04T11:58:13;102989.63;;;9.16;55.16
47054;BME280;32811;52.382;5.270;2023-04-04T12:00:41;102982.38;;;9.07;55.25
47054;BME280;32811;52.382;5.270;2023-04-04T12:03:10;102986.22;;;9.17;55.73
47054;BME280;32811;52.382;5.270;2023-04-04T12:05:39;102987.72;;;9.12;55.08
47054;BME280;32811;52.382;5.270;2023-04-04T12:08:08;102976.84;;;9.00;54.44
47054;BME280;32811;52.382;5.270;2023-04-04T12:10:38;102974.03;;;9.13;57.48
47054;BME280;32811;52.382;5.270;2023-04-04T12:13:07;102980.00;;;9.31;57.36
47054;BME280;32811;52.382;5.270;2023-04-04T12:15:35;102971.38;;;9.50;56.36
47054;BME280;32811;52.382;5.270;2023-04-04T12:18:06;102962.25;;;9.18;55.81
47054;BME280;32811;52.382;5.270;2023-04-04T12:20:36;102963.50;;;9.08;56.53
47054;BME280;32811;52.382;5.270;2023-04-04T12:23:03;102948.00;;;9.07;56.00
47054;BME280;32811;52.382;5.270;2023-04-04T12:25:31;102946.63;;;9.15;56.06
47054;BME280;32811;52.382;5.270;2023-04-04T12:28:00;102925.50;;;9.22;57.91
47054;BME280;32811;52.382;5.270;2023-04-04T12:30:27;102915.72;;;9.34;57.65
47054;BME280;32811;52.382;5.270;2023-04-04T12:32:55;102908.91;;;9.37;57.83
47054;BME280;32811;52.382;5.270;2023-04-04T12:35:21;102923.88;;;9.24;57.81
47054;BME280;32811;52.382;5.270;2023-04-04T12:37:59;102945.16;;;9.20;58.55
47054;BME280;32811;52.382;5.270;2023-04-04T12:40:31;102934.81;;;9.40;57.26
47054;BME280;32811;52.382;5.270;2023-04-04T12:42:59;102935.00;;;9.44;57.65
47054;BME280;32811;52.382;5.270;2023-04-04T12:45:27;102939.16;;;9.41;56.55
47054;BME280;32811;52.382;5.270;2023-04-04T12:47:55;102940.22;;;9.25;56.70
47054;BME280;32811;52.382;5.270;2023-04-04T12:50:26;102935.19;;;9.28;57.55
47054;BME280;32811;52.382;5.270;2023-04-04T12:52:53;102926.09;;;8.97;57.68
47054;BME280;32811;52.382;5.270;2023-04-04T12:55:33;102938.50;;;9.06;57.40
47054;BME280;32811;52.382;5.270;2023-04-04T12:58:00;102930.09;;;8.90;57.71
47054;BME280;32811;52.382;5.270;2023-04-04T13:00:27;102920.88;;;8.76;57.13
47054;BME280;32811;52.382;5.270;2023-04-04T13:02:55;102913.41;;;9.02;58.12
47054;BME280;32811;52.382;5.270;2023-04-04T13:05:24;102918.16;;;8.92;57.56
47054;BME280;32811;52.382;5.270;2023-04-04T13:08:04;102908.69;;;9.11;57.58
47054;BME280;32811;52.382;5.270;2023-04-04T13:13:36;102898.38;;;9.11;57.11
47054;BME280;32811;52.382;5.270;2023-04-04T13:16:05;102888.22;;;9.14;57.59
47054;BME280;32811;52.382;5.270;2023-04-04T13:18:35;102895.00;;;9.33;58.30